Ballinger, TX

7:06 AM CDT on July 06, 2015 (GMT -0500)
Hutchings Ave | | Change Station
CLOSE
Current Station
Personal Weather Station
Location: Ballinger, TX
Elevation: 1631 ft
Nearby Weather Stations

Elev 1631 ft 31.74 °N, 99.95 °W | Updated 51 seconds ago

Partly Cloudy
Partly Cloudy
75.7 °F
Feels Like 76 °F
N
0.0
Wind Variable Wind from SSE
Gusts 4.0 mph

Today
High -- | Low -- °F
--% Chance of Precip.
Yesterday
High -- | Low -- °F
Precip. -- in
6:40 AM 8:48 PM
Waning Gibbous, 76% visible
Pressure 29.99 in
Visibility 10.0 miles
Clouds Overcast 2900 ft
Heat Index 76 °F
Dew Point 71 °F
Humidity 86%
Rainfall 0.00 in
Snow Depth Not available.
UV 0 out of 12
Pollen 4.50 out of 12
Air Quality Not available.
Flu Activity Not available.
METAR KCOM 061155Z AUTO 16007KT 10SM OVC029 25/22 A2999 RMK AO2 T02450224 10261 20240

More Conditions Fewer Conditions

Pressure 29.99 in
Visibility 10.0 miles
Clouds Overcast 2900 ft
Heat Index 76 °F
Dew Point 71 °F
Humidity 86%
Rainfall 0.00 in
Snow Depth Not available.
UV 0 out of 12
Pollen 4.50 out of 12
Air Quality Not available.
Flu Activity Not available.
METAR KCOM 061155Z AUTO 16007KT 10SM OVC029 25/22 A2999 RMK AO2 T02450224 10261 20240

More Conditions Fewer Conditions

10-Day Weather Forecast

×

Almanac

Astronomy

Jul. 06, 2015 Rise Set
Actual Time
Civil Twilight
Nautical Twilight
Astronomical Twilight
Moon
Length of Visible Light
Length of Day
Tomorrow will be .
, % of the Moon is Illuminated

Today's Extremes

State Highs State Lows

Community

WunderPhotos

Upload Photos

1,835,538 photos uploaded!

WunderBlogs® & News

Nearby

Air Quality

  Air Quality AQ Index Pollutant
Not available.

Snow Depth

Station Depth Elevation

Earthquake Activity

City Distance Mag. Time & Date
Minimum magnitude displayed is 2.5.

Coastal Water Temperatures

Place Temperature

Stations

Nearby Weather Stations

Station Location Temp. Windchill Dew Point Humidity Wind Precip. Elev Updated Type